Time;durP1;ratioP1;P1;durP2;ratioP2;P2;SDS_P1;SDS_P2;PMS_P1;PMS_P2;Temp;Humidity;BMP_temperature;BMP_pressure;BME280_temperature;BME280_humidity;BME280_pressure;Samples;Min_cycle;Max_cycle;Signal;HPM_P1;HPM_P2
2022/07/28 00:00:22;;;;;;;;;;;;;;;24.13;75.94;100540.22;5029917;28;19913;-82
2022/07/28 00:02:47;;;;;;;;;;;;;;;24.06;76.22;100540.38;5007012;28;19921;-83
2022/07/28 00:05:15;;;;;;;;;;;;;;;24.09;76.22;100542.66;5026466;28;19936;-83
2022/07/28 00:07:40;;;;;;;;;;;;;;;24.12;76.07;100533.91;5028631;28;19917;-83
2022/07/28 00:10:06;;;;;;;;;;;;;;;24.11;76.52;100545.13;5019241;28;20332;-83
2022/07/28 00:12:32;;;;;;;;;;;;;;;24.04;76.48;100553.53;5030990;28;20266;-83
2022/07/28 00:15:00;;;;;;;;;;;;;;;24.08;76.64;100548.38;5026860;28;19913;-83
2022/07/28 00:17:25;;;;;;;;;;;;;;;24.00;77.07;100549.66;5032164;28;19928;-83
2022/07/28 00:19:51;;;;;;;;;;;;;;;24.04;76.58;100544.47;5027600;28;19913;-83
2022/07/28 00:22:19;;;;;;;;;;;;;;;24.03;76.61;100551.91;5025147;28;19964;-82
2022/07/28 00:24:45;;;;;;;;;;;;;;;24.05;76.34;100549.72;5030023;28;19924;-80
2022/07/28 00:27:11;;;;;;;;;;;;;;;23.95;76.96;100552.31;5031270;28;20297;-81
2022/07/28 00:29:36;;;;;;;;;;;;;;;23.99;76.87;100556.22;5025443;28;19913;-83
2022/07/28 00:32:01;;;;;;;;;;;;;;;24.03;76.60;100551.91;5026193;28;20385;-82
2022/07/28 00:34:27;;;;;;;;;;;;;;;24.02;76.25;100553.81;5029400;28;20340;-80
2022/07/28 00:36:53;;;;;;;;;;;;;;;24.00;76.11;100552.41;5030090;28;19949;-82
2022/07/28 00:39:18;;;;;;;;;;;;;;;23.95;76.53;100546.81;5029789;28;19925;-83
2022/07/28 00:41:43;;;;;;;;;;;;;;;23.95;76.75;100558.66;5027329;28;19917;-82
2022/07/28 00:44:09;;;;;;;;;;;;;;;23.97;76.39;100561.13;5029870;28;19925;-82
2022/07/28 00:46:34;;;;;;;;;;;;;;;23.91;76.83;100554.75;5023622;28;20378;-81
2022/07/28 00:48:59;;;;;;;;;;;;;;;23.84;76.85;100558.75;5030569;28;19991;-82
2022/07/28 00:51:25;;;;;;;;;;;;;;;23.87;77.02;100564.56;5026046;28;20351;-82
2022/07/28 00:53:52;;;;;;;;;;;;;;;23.87;76.78;100558.25;5013596;28;20023;-84
2022/07/28 00:56:19;;;;;;;;;;;;;;;23.85;76.89;100571.38;5030625;28;20353;-83
2022/07/28 00:58:46;;;;;;;;;;;;;;;23.85;76.65;100568.63;5030462;28;20223;-82
2022/07/28 01:01:14;;;;;;;;;;;;;;;23.85;76.65;100566.72;5022419;28;19955;-82
2022/07/28 01:03:40;;;;;;;;;;;;;;;23.79;76.83;100568.56;5028855;28;19935;-82
2022/07/28 01:06:30;;;;;;;;;;;;;;;23.79;77.13;100578.72;5010842;28;19913;-82
2022/07/28 01:09:05;;;;;;;;;;;;;;;23.74;77.28;100576.72;5004802;28;20348;-82
2022/07/28 01:11:31;;;;;;;;;;;;;;;23.73;77.12;100575.00;5030615;28;20016;-81
2022/07/28 01:14:10;;;;;;;;;;;;;;;23.75;77.19;100583.88;5012331;28;20020;-81
2022/07/28 01:16:38;;;;;;;;;;;;;;;23.71;77.00;100582.66;5027571;28;19945;-81
2022/07/28 01:19:04;;;;;;;;;;;;;;;23.68;77.31;100587.84;5026255;28;20462;-82
2022/07/28 01:21:32;;;;;;;;;;;;;;;23.69;77.01;100584.81;5023494;28;20008;-81
2022/07/28 01:24:03;;;;;;;;;;;;;;;23.67;77.48;100575.19;5024913;28;19925;-82
2022/07/28 01:26:35;;;;;;;;;;;;;;;23.71;76.92;100582.66;5027456;28;19921;-81
2022/07/28 01:29:06;;;;;;;;;;;;;;;23.71;76.58;100574.44;5029353;28;19917;-82
2022/07/28 01:31:38;;;;;;;;;;;;;;;23.70;76.91;100570.03;5021707;28;19929;-80
2022/07/28 01:34:05;;;;;;;;;;;;;;;23.69;77.01;100573.03;5049196;28;19927;-82
2022/07/28 01:36:30;;;;;;;;;;;;;;;23.71;76.88;100577.19;5009889;28;19971;-81
2022/07/28 01:38:56;;;;;;;;;;;;;;;23.70;76.50;100578.28;5028535;28;20138;-80
2022/07/28 01:41:24;;;;;;;;;;;;;;;23.65;76.92;100580.09;5024568;28;19913;-81
2022/07/28 01:43:54;;;;;;;;;;;;;;;23.67;76.92;100576.03;5030167;28;19919;-82
2022/07/28 01:46:19;;;;;;;;;;;;;;;23.70;76.60;100589.25;5024090;28;19971;-81
2022/07/28 01:48:45;;;;;;;;;;;;;;;23.69;76.94;100589.50;5030613;28;19952;-82
2022/07/28 01:51:10;;;;;;;;;;;;;;;23.65;77.11;100591.91;5026193;28;19933;-81
2022/07/28 01:53:37;;;;;;;;;;;;;;;23.60;76.85;100591.84;5029676;28;20421;-82
2022/07/28 01:56:07;;;;;;;;;;;;;;;23.63;77.11;100585.84;5022538;28;20031;-82
2022/07/28 01:58:34;;;;;;;;;;;;;;;23.63;77.21;100590.50;5029637;28;20012;-83
2022/07/28 02:00:59;;;;;;;;;;;;;;;23.62;77.09;100600.63;5027670;28;20000;-82
2022/07/28 02:03:25;;;;;;;;;;;;;;;23.58;77.44;100600.31;5011047;28;19936;-82
2022/07/28 02:05:51;;;;;;;;;;;;;;;23.60;77.03;100597.31;5026432;28;19940;-82
2022/07/28 02:08:20;;;;;;;;;;;;;;;23.58;77.35;100599.47;5027306;28;19917;-82
2022/07/28 02:11:38;;;;;;;;;;;;;;;23.60;77.57;100600.06;5025955;28;20007;-83
2022/07/28 02:13:34;;;;;;;;;;;;;;;23.61;77.21;100593.50;5025727;28;20008;-81
2022/07/28 02:15:59;;;;;;;;;;;;;;;23.60;77.56;100598.16;5038562;28;20413;-82
2022/07/28 02:18:26;;;;;;;;;;;;;;;23.60;77.17;100606.38;5023793;28;19929;-83
2022/07/28 02:20:52;;;;;;;;;;;;;;;23.55;77.69;100610.94;5020535;28;19917;-82
2022/07/28 02:23:17;;;;;;;;;;;;;;;23.58;77.70;100615.94;5028037;28;19935;-82
2022/07/28 02:25:42;;;;;;;;;;;;;;;23.55;77.92;100616.41;5026687;28;19944;-82
2022/07/28 02:28:08;;;;;;;;;;;;;;;23.59;77.83;100621.16;5027830;28;19925;-83
2022/07/28 02:30:37;;;;;;;;;;;;;;;23.58;77.60;100632.41;5027379;28;20449;-82
2022/07/28 02:33:03;;;;;;;;;;;;;;;23.59;77.76;100634.88;5029258;28;19933;-83
2022/07/28 02:35:38;;;;;;;;;;;;;;;23.62;77.97;100638.22;5019813;28;19917;-81
2022/07/28 02:38:23;;;;;;;;;;;;;;;23.60;77.67;100641.22;5027473;28;20357;-83
2022/07/28 02:40:48;;;;;;;;;;;;;;;23.58;77.61;100638.72;5025548;28;19925;-82
2022/07/28 02:43:14;;;;;;;;;;;;;;;23.58;77.47;100660.69;5028756;28;19913;-81
2022/07/28 02:45:41;;;;;;;;;;;;;;;23.59;77.54;100656.00;5021108;28;20008;-82
2022/07/28 02:48:10;;;;;;;;;;;;;;;23.62;77.46;100649.19;5028011;28;19943;-82
2022/07/28 02:50:39;;;;;;;;;;;;;;;23.59;77.90;100654.09;5026991;28;19913;-82
2022/07/28 02:53:05;;;;;;;;;;;;;;;23.57;77.92;100652.69;5032051;28;20301;-81
2022/07/28 02:55:31;;;;;;;;;;;;;;;23.55;77.95;100654.84;5028990;28;19972;-82
2022/07/28 02:57:56;;;;;;;;;;;;;;;23.60;77.54;100652.22;5030897;28;19925;-82
2022/07/28 03:00:23;;;;;;;;;;;;;;;23.61;77.31;100651.13;5023539;28;20054;-82
2022/07/28 03:02:48;;;;;;;;;;;;;;;23.61;77.45;100653.84;5025792;28;20011;-81
2022/07/28 03:05:14;;;;;;;;;;;;;;;23.60;77.33;100647.53;5023525;28;20000;-82
2022/07/28 03:07:40;;;;;;;;;;;;;;;23.63;77.21;100650.88;5030332;28;19925;-82
2022/07/28 03:10:06;;;;;;;;;;;;;;;23.68;77.29;100659.19;5028713;28;19963;-82
2022/07/28 03:12:31;;;;;;;;;;;;;;;23.68;77.41;100651.78;5030570;28;20452;-82
2022/07/28 03:14:56;;;;;;;;;;;;;;;23.68;77.41;100657.28;5026907;28;20008;-82
2022/07/28 03:17:22;;;;;;;;;;;;;;;23.64;78.00;100656.09;5026149;28;19921;-81
2022/07/28 03:19:47;;;;;;;;;;;;;;;23.74;77.52;100661.81;5027691;28;19953;-82
2022/07/28 03:22:13;;;;;;;;;;;;;;;23.76;77.67;100659.66;5027509;28;19964;-82
2022/07/28 03:24:39;;;;;;;;;;;;;;;23.78;77.69;100659.38;5029427;28;19923;-81
2022/07/28 03:27:17;;;;;;;;;;;;;;;23.87;77.38;100668.06;5028695;28;19932;-82
2022/07/28 03:29:44;;;;;;;;;;;;;;;23.91;77.20;100664.56;5027870;28;19918;-82
2022/07/28 03:32:11;;;;;;;;;;;;;;;23.96;76.88;100669.31;5027758;28;19917;-83
2022/07/28 03:34:36;;;;;;;;;;;;;;;23.94;76.63;100674.22;5025653;28;19949;-81
2022/07/28 03:37:02;;;;;;;;;;;;;;;23.85;76.63;100673.78;5027070;28;20040;-84
2022/07/28 03:39:28;;;;;;;;;;;;;;;23.97;76.25;100673.69;5024699;28;19929;-83
2022/07/28 03:41:53;;;;;;;;;;;;;;;24.01;75.66;100672.94;5028422;28;19960;-83
2022/07/28 03:44:19;;;;;;;;;;;;;;;23.99;75.99;100677.03;5009882;28;19914;-81
2022/07/28 03:46:44;;;;;;;;;;;;;;;24.05;75.58;100673.31;5021942;28;19917;-83
2022/07/28 03:49:10;;;;;;;;;;;;;;;24.06;75.40;100661.22;5031078;28;20399;-82
2022/07/28 03:51:35;;;;;;;;;;;;;;;24.09;75.43;100673.63;5027023;28;19967;-83
2022/07/28 03:54:01;;;;;;;;;;;;;;;24.18;74.88;100678.44;5027453;28;19917;-83
2022/07/28 03:56:27;;;;;;;;;;;;;;;24.22;74.83;100676.84;5028904;28;19925;-82
2022/07/28 03:58:55;;;;;;;;;;;;;;;24.13;75.71;100672.88;5030459;28;19917;-82
2022/07/28 04:01:21;;;;;;;;;;;;;;;24.26;75.50;100677.19;5034274;28;19944;-82
2022/07/28 04:03:47;;;;;;;;;;;;;;;24.30;75.04;100681.09;5039072;28;19967;-83
2022/07/28 04:06:12;;;;;;;;;;;;;;;24.33;75.34;100685.28;5036906;28;19920;-82
2022/07/28 04:08:38;;;;;;;;;;;;;;;24.36;74.89;100682.00;5034500;28;20343;-82
2022/07/28 04:11:04;;;;;;;;;;;;;;;24.47;74.52;100683.84;5028242;28;19999;-83
2022/07/28 04:13:35;;;;;;;;;;;;;;;24.60;74.30;100680.72;5029771;28;20381;-82
2022/07/28 04:16:00;;;;;;;;;;;;;;;24.66;74.34;100684.41;5023427;28;19917;-83
2022/07/28 04:18:26;;;;;;;;;;;;;;;24.71;73.91;100676.22;5027566;28;19944;-84
2022/07/28 04:20:51;;;;;;;;;;;;;;;24.75;73.75;100674.63;5023735;28;19917;-82
2022/07/28 04:23:19;;;;;;;;;;;;;;;24.81;73.36;100683.75;5028480;28;19917;-83
2022/07/28 04:25:45;;;;;;;;;;;;;;;24.84;73.22;100680.50;5026995;28;20008;-83
2022/07/28 04:28:10;;;;;;;;;;;;;;;24.96;72.59;100680.34;5020957;28;20017;-82
2022/07/28 04:30:36;;;;;;;;;;;;;;;25.01;72.31;100692.28;5027066;28;19924;-81
2022/07/28 04:33:01;;;;;;;;;;;;;;;25.05;72.08;100681.56;5027461;28;19939;-82
2022/07/28 04:35:27;;;;;;;;;;;;;;;25.09;72.11;100690.97;5027964;28;20369;-86
2022/07/28 04:37:57;;;;;;;;;;;;;;;25.24;71.53;100691.22;5028178;28;20404;-82
2022/07/28 04:40:22;;;;;;;;;;;;;;;25.41;71.35;100687.53;5025354;28;20352;-82
2022/07/28 04:42:47;;;;;;;;;;;;;;;25.69;70.40;100690.00;5011256;28;19917;-84
2022/07/28 04:45:13;;;;;;;;;;;;;;;25.87;69.27;100699.84;5023082;28;19925;-83
2022/07/28 04:47:38;;;;;;;;;;;;;;;26.06;68.58;100693.97;5029438;28;19917;-82
2022/07/28 04:50:07;;;;;;;;;;;;;;;26.20;67.90;100700.66;5028853;28;19917;-82
2022/07/28 04:52:33;;;;;;;;;;;;;;;26.37;66.71;100699.69;5029863;28;21569;-82
2022/07/28 04:54:58;;;;;;;;;;;;;;;26.54;66.85;100694.84;5025596;28;19932;-82
2022/07/28 04:57:26;;;;;;;;;;;;;;;26.33;66.70;100699.38;5013580;28;20007;-81
2022/07/28 04:59:53;;;;;;;;;;;;;;;26.41;66.19;100701.66;5023956;28;20269;-81
2022/07/28 05:02:18;;;;;;;;;;;;;;;26.61;65.79;100713.94;5029003;28;20495;-83
2022/07/28 05:04:44;;;;;;;;;;;;;;;26.69;65.46;100706.00;5028350;28;19917;-82
2022/07/28 05:07:10;;;;;;;;;;;;;;;27.03;64.28;100713.03;5028710;28;19921;-85
2022/07/28 05:09:36;;;;;;;;;;;;;;;27.35;62.70;100704.63;5023980;28;19974;-87
2022/07/28 05:12:04;;;;;;;;;;;;;;;27.40;62.76;100712.09;5023624;28;19918;-85
2022/07/28 05:14:29;;;;;;;;;;;;;;;27.37;62.07;100707.94;5026570;28;19917;-84
2022/07/28 05:16:55;;;;;;;;;;;;;;;27.66;61.18;100708.28;5025710;28;19975;-83
2022/07/28 05:19:21;;;;;;;;;;;;;;;27.72;61.05;100717.38;5021901;28;19956;-84
2022/07/28 05:21:46;;;;;;;;;;;;;;;27.56;60.76;100711.84;5025394;28;20441;-83
2022/07/28 05:24:12;;;;;;;;;;;;;;;27.54;61.32;100714.06;5026560;28;19925;-83
2022/07/28 05:26:38;;;;;;;;;;;;;;;27.58;61.18;100717.94;5039137;28;19925;-85
2022/07/28 05:29:03;;;;;;;;;;;;;;;27.73;60.46;100721.81;5028704;28;19924;-83
2022/07/28 05:31:29;;;;;;;;;;;;;;;28.00;59.88;100732.63;5027935;28;19924;-84
2022/07/28 05:33:54;;;;;;;;;;;;;;;27.84;59.93;100723.53;5027355;28;19929;-91
2022/07/28 05:36:23;;;;;;;;;;;;;;;28.08;59.79;100731.28;5033697;28;19917;-85
2022/07/28 05:38:50;;;;;;;;;;;;;;;28.18;59.41;100728.50;5030074;28;20488;-83
2022/07/28 05:41:15;;;;;;;;;;;;;;;28.42;58.79;100726.84;5026819;28;21251;-83
2022/07/28 05:43:41;;;;;;;;;;;;;;;28.37;58.46;100737.06;5030546;28;19929;-83
2022/07/28 05:46:06;;;;;;;;;;;;;;;28.41;58.34;100733.47;5030235;28;19929;-88
2022/07/28 05:48:34;;;;;;;;;;;;;;;28.50;57.63;100730.16;5032884;28;19935;-86
2022/07/28 05:51:03;;;;;;;;;;;;;;;28.06;58.02;100736.25;5044283;28;19924;-85
2022/07/28 05:53:29;;;;;;;;;;;;;;;28.08;58.30;100745.91;5041835;28;19917;-85
2022/07/28 05:55:54;;;;;;;;;;;;;;;28.45;57.75;100746.72;5046701;28;19949;-87
2022/07/28 05:58:20;;;;;;;;;;;;;;;28.72;57.28;100747.25;5042037;28;19929;-89
2022/07/28 06:00:46;;;;;;;;;;;;;;;28.31;58.06;100750.06;5036899;28;19921;-93
2022/07/28 06:03:13;;;;;;;;;;;;;;;28.41;57.74;100752.00;5045466;28;19929;-88
2022/07/28 06:05:38;;;;;;;;;;;;;;;28.53;57.50;100757.25;5041111;28;19928;-88
2022/07/28 06:08:04;;;;;;;;;;;;;;;28.69;57.29;100755.31;5037128;28;19917;-87
2022/07/28 06:10:57;;;;;;;;;;;;;;;29.01;56.50;100758.53;5026802;28;19953;-88
2022/07/28 06:13:15;;;;;;;;;;;;;;;29.15;56.08;100763.47;5029139;28;19928;-89
2022/07/28 06:15:40;;;;;;;;;;;;;;;29.35;54.83;100757.03;5025076;28;19912;-90
2022/07/28 06:18:05;;;;;;;;;;;;;;;29.60;53.84;100753.31;5031481;28;20308;-91
2022/07/28 06:20:31;;;;;;;;;;;;;;;29.80;52.88;100761.50;5026913;28;19917;-89
2022/07/28 06:22:56;;;;;;;;;;;;;;;30.06;52.30;100764.94;5026057;28;19920;-87
2022/07/28 06:25:22;;;;;;;;;;;;;;;29.94;52.03;100764.47;5023353;28;19924;-87
2022/07/28 06:27:48;;;;;;;;;;;;;;;30.02;51.86;100766.63;5031483;28;19917;-88
2022/07/28 06:30:13;;;;;;;;;;;;;;;29.92;52.10;100768.63;5025347;28;19929;-89
2022/07/28 06:32:40;;;;;;;;;;;;;;;29.53;53.04;100786.84;5029304;28;20421;-85
2022/07/28 06:35:06;;;;;;;;;;;;;;;28.88;54.97;100774.91;5020413;28;19925;-82
2022/07/28 06:37:31;;;;;;;;;;;;;;;29.03;54.42;100780.38;5027691;28;19913;-84
2022/07/28 06:39:56;;;;;;;;;;;;;;;29.16;53.68;100777.03;5025337;28;19924;-83
2022/07/28 06:42:22;;;;;;;;;;;;;;;29.28;53.56;100782.25;5044503;28;19917;-85
2022/07/28 06:44:49;;;;;;;;;;;;;;;29.30;53.26;100785.56;5026195;28;20254;-83
2022/07/28 06:47:14;;;;;;;;;;;;;;;29.14;53.64;100786.75;5029092;28;19974;-84
2022/07/28 06:49:39;;;;;;;;;;;;;;;28.87;54.53;100787.06;5030280;28;20289;-84
2022/07/28 06:52:05;;;;;;;;;;;;;;;29.03;54.02;100785.91;5028129;28;19921;-83
2022/07/28 06:54:30;;;;;;;;;;;;;;;29.48;52.77;100788.81;5026950;28;20004;-85
2022/07/28 06:56:56;;;;;;;;;;;;;;;29.53;53.06;100789.63;5029572;28;20053;-84
2022/07/28 06:59:21;;;;;;;;;;;;;;;29.57;52.73;100793.50;5025370;28;20417;-84
2022/07/28 07:01:47;;;;;;;;;;;;;;;29.22;53.59;100803.59;5018794;28;19959;-85
2022/07/28 07:04:12;;;;;;;;;;;;;;;29.13;54.00;100799.75;5028431;28;19914;-86
2022/07/28 07:06:38;;;;;;;;;;;;;;;29.34;53.69;100799.69;5024401;28;20004;-87
2022/07/28 07:09:03;;;;;;;;;;;;;;;29.81;52.21;100795.59;5029488;28;19917;-85
2022/07/28 07:11:29;;;;;;;;;;;;;;;29.99;51.75;100800.47;5021014;28;20348;-83
2022/07/28 07:13:54;;;;;;;;;;;;;;;30.16;50.57;100794.53;5028488;28;19913;-82
2022/07/28 07:16:19;;;;;;;;;;;;;;;29.74;50.98;100803.41;5025526;28;19999;-82
2022/07/28 07:18:47;;;;;;;;;;;;;;;29.96;51.08;100803.81;5027908;28;19922;-85
2022/07/28 07:21:12;;;;;;;;;;;;;;;30.52;50.07;100801.75;5023900;28;19962;-83
2022/07/28 07:23:37;;;;;;;;;;;;;;;30.43;49.41;100804.31;5029897;28;19917;-84
2022/07/28 07:26:03;;;;;;;;;;;;;;;30.84;48.68;100803.97;5024057;28;19971;-85
2022/07/28 07:28:28;;;;;;;;;;;;;;;31.00;47.75;100805.47;5029525;28;20069;-86
2022/07/28 07:30:53;;;;;;;;;;;;;;;30.63;48.55;100804.13;5024866;28;19914;-82
2022/07/28 07:33:19;;;;;;;;;;;;;;;30.53;49.38;100808.94;5029252;28;19913;-82
2022/07/28 07:35:44;;;;;;;;;;;;;;;30.16;50.13;100818.66;5023865;28;20009;-85
2022/07/28 07:38:10;;;;;;;;;;;;;;;30.05;50.28;100821.47;5024371;28;19917;-90
2022/07/28 07:40:35;;;;;;;;;;;;;;;30.06;50.70;100817.59;5034529;28;21828;-86
2022/07/28 07:43:02;;;;;;;;;;;;;;;29.98;51.00;100820.16;5046386;28;19924;-88
2022/07/28 07:45:28;;;;;;;;;;;;;;;30.02;51.35;100810.97;5051118;28;19917;-86
2022/07/28 07:47:54;;;;;;;;;;;;;;;30.36;49.69;100821.28;5048175;28;19949;-83
2022/07/28 07:50:19;;;;;;;;;;;;;;;30.45;49.78;100818.72;5040522;28;19971;-81
2022/07/28 07:52:44;;;;;;;;;;;;;;;30.58;49.32;100825.53;5027451;28;19917;-85
2022/07/28 07:55:11;;;;;;;;;;;;;;;30.96;48.51;100834.09;5026759;28;19960;-84
2022/07/28 07:57:37;;;;;;;;;;;;;;;31.07;47.56;100830.06;5032563;28;19983;-87
2022/07/28 08:00:03;;;;;;;;;;;;;;;30.94;46.70;100826.06;5012078;28;20381;-86
2022/07/28 08:02:29;;;;;;;;;;;;;;;30.76;47.53;100827.56;5029086;28;19921;-88
2022/07/28 08:04:56;;;;;;;;;;;;;;;31.28;46.31;100830.66;5031731;28;20290;-85
2022/07/28 08:07:21;;;;;;;;;;;;;;;31.75;46.27;100820.66;5033888;28;20012;-88
2022/07/28 08:09:49;;;;;;;;;;;;;;;31.55;45.24;100824.53;5035228;28;19925;-91
2022/07/28 08:12:15;;;;;;;;;;;;;;;32.11;44.65;100829.31;5037628;28;19924;-89
2022/07/28 08:14:42;;;;;;;;;;;;;;;31.63;45.90;100826.66;5029448;28;19917;-89
2022/07/28 08:17:07;;;;;;;;;;;;;;;31.92;45.25;100825.69;5032073;28;20004;-88
2022/07/28 08:19:35;;;;;;;;;;;;;;;32.57;43.79;100828.59;5033309;28;20397;-86
2022/07/28 08:22:01;;;;;;;;;;;;;;;32.85;42.73;100827.81;5031535;28;19917;-83
2022/07/28 08:24:26;;;;;;;;;;;;;;;32.45;43.32;100830.16;5029103;28;19923;-87
2022/07/28 08:26:51;;;;;;;;;;;;;;;32.51;43.34;100835.38;5033070;28;19933;-85
2022/07/28 08:29:18;;;;;;;;;;;;;;;31.88;43.99;100824.63;5031373;28;19961;-87
2022/07/28 08:31:44;;;;;;;;;;;;;;;32.00;44.30;100830.59;5030513;28;19920;-87
2022/07/28 08:34:10;;;;;;;;;;;;;;;32.66;42.28;100827.88;5032125;28;19926;-85
2022/07/28 08:36:37;;;;;;;;;;;;;;;32.88;42.97;100825.28;5031593;28;20274;-84
2022/07/28 08:39:03;;;;;;;;;;;;;;;33.03;42.24;100832.50;5030550;28;20633;-85
2022/07/28 08:41:34;;;;;;;;;;;;;;;32.79;42.49;100835.47;5015872;28;20004;-87
2022/07/28 08:43:59;;;;;;;;;;;;;;;33.17;41.58;100832.53;5029352;28;19996;-83
2022/07/28 08:46:25;;;;;;;;;;;;;;;33.76;40.43;100839.13;5026164;28;20416;-85
2022/07/28 08:48:50;;;;;;;;;;;;;;;34.16;39.23;100833.78;5027895;28;19926;-83
2022/07/28 08:51:16;;;;;;;;;;;;;;;33.95;39.21;100843.72;5025991;28;19944;-81
2022/07/28 08:53:42;;;;;;;;;;;;;;;34.06;39.18;100834.78;5029275;28;19921;-82
2022/07/28 08:56:08;;;;;;;;;;;;;;;34.49;38.73;100833.53;5009881;28;20336;-81
2022/07/28 08:58:34;;;;;;;;;;;;;;;34.77;38.11;100839.81;5030925;28;19920;-83
2022/07/28 09:01:00;;;;;;;;;;;;;;;34.08;39.04;100844.81;5029454;28;20399;-81
2022/07/28 09:03:25;;;;;;;;;;;;;;;34.23;38.74;100836.97;5030863;28;19924;-82
2022/07/28 09:05:51;;;;;;;;;;;;;;;33.97;39.26;100841.44;5027583;28;19917;-82
2022/07/28 09:08:17;;;;;;;;;;;;;;;34.83;38.72;100835.72;5031005;28;19913;-83
2022/07/28 09:10:42;;;;;;;;;;;;;;;35.00;37.91;100834.97;5026641;28;19929;-82
2022/07/28 09:13:07;;;;;;;;;;;;;;;34.80;37.88;100846.72;5030705;28;19947;-83
2022/07/28 09:15:33;;;;;;;;;;;;;;;35.80;36.72;100846.13;5026385;28;19921;-83
2022/07/28 09:17:59;;;;;;;;;;;;;;;35.86;36.34;100833.63;5030919;28;19913;-83
2022/07/28 09:20:24;;;;;;;;;;;;;;;36.47;35.31;100853.22;5025544;28;20281;-83
2022/07/28 09:22:59;;;;;;;;;;;;;;;36.39;34.53;100853.25;5031145;28;19913;-84
2022/07/28 09:25:25;;;;;;;;;;;;;;;36.20;33.94;100847.97;5028367;28;19928;-82
2022/07/28 09:27:50;;;;;;;;;;;;;;;37.14;32.05;100851.78;5025826;28;19913;-84
2022/07/28 09:30:16;;;;;;;;;;;;;;;36.74;32.87;100840.84;5028274;28;19914;-83
2022/07/28 09:32:41;;;;;;;;;;;;;;;37.03;33.29;100850.47;5013560;28;19939;-83
2022/07/28 09:35:19;;;;;;;;;;;;;;;38.01;31.41;100842.06;5025786;28;19932;-83
2022/07/28 09:37:44;;;;;;;;;;;;;;;37.91;31.53;100854.50;5026678;28;19996;-82
2022/07/28 09:40:10;;;;;;;;;;;;;;;38.25;31.47;100846.97;5025662;28;20003;-84
2022/07/28 09:42:45;;;;;;;;;;;;;;;38.62;29.85;100850.75;5031957;28;19976;-83
2022/07/28 09:45:10;;;;;;;;;;;;;;;38.20;30.97;100848.00;5025610;28;19917;-83
2022/07/28 09:47:39;;;;;;;;;;;;;;;37.64;31.89;100849.41;5031788;28;19913;-83
2022/07/28 09:50:04;;;;;;;;;;;;;;;37.32;31.14;100849.72;5030090;28;19917;-83
2022/07/28 09:52:32;;;;;;;;;;;;;;;37.94;30.59;100852.97;5040834;28;19913;-82
2022/07/28 09:55:04;;;;;;;;;;;;;;;38.71;29.69;100856.28;5032723;28;20011;-83
2022/07/28 09:57:30;;;;;;;;;;;;;;;40.17;28.46;100848.19;5030909;28;19935;-83
2022/07/28 09:59:55;;;;;;;;;;;;;;;41.53;25.81;100842.53;5032248;28;19917;-82
2022/07/28 10:02:24;;;;;;;;;;;;;;;41.39;25.99;100839.38;5031725;28;19979;-83
2022/07/28 10:04:50;;;;;;;;;;;;;;;42.33;24.83;100846.72;5032244;28;20008;-83
2022/07/28 10:07:18;;;;;;;;;;;;;;;41.32;26.87;100849.31;5030044;28;19944;-83
2022/07/28 10:09:54;;;;;;;;;;;;;;;41.24;26.79;100835.41;5026202;28;19918;-83
2022/07/28 10:12:20;;;;;;;;;;;;;;;41.52;26.57;100843.72;5031289;28;19913;-83
2022/07/28 10:14:46;;;;;;;;;;;;;;;42.01;25.25;100840.44;5028891;28;20004;-83
2022/07/28 10:17:20;;;;;;;;;;;;;;;42.16;24.82;100850.81;5021753;28;20381;-84
2022/07/28 10:19:46;;;;;;;;;;;;;;;43.51;22.75;100838.75;5025151;28;19921;-84
2022/07/28 10:22:11;;;;;;;;;;;;;;;42.64;24.00;100846.94;5007746;28;19917;-83
2022/07/28 10:24:36;;;;;;;;;;;;;;;43.62;22.33;100834.06;5015434;28;20262;-83
2022/07/28 10:27:02;;;;;;;;;;;;;;;42.80;23.80;100847.66;5026028;28;19913;-84
2022/07/28 10:29:30;;;;;;;;;;;;;;;42.40;22.99;100845.28;5026853;28;19913;-84
2022/07/28 10:31:57;;;;;;;;;;;;;;;43.05;22.47;100844.47;5006198;28;20200;-83
2022/07/28 10:34:29;;;;;;;;;;;;;;;42.59;23.33;100842.41;5028083;28;20028;-83
2022/07/28 10:36:54;;;;;;;;;;;;;;;41.32;24.92;100849.31;5020329;28;20011;-83
2022/07/28 10:39:21;;;;;;;;;;;;;;;42.10;24.78;100846.69;5027763;28;19960;-84
2022/07/28 10:41:47;;;;;;;;;;;;;;;41.92;23.75;100849.09;5026758;28;20028;-83
2022/07/28 10:44:17;;;;;;;;;;;;;;;41.69;22.49;100846.16;5028025;28;19961;-82
2022/07/28 10:46:42;;;;;;;;;;;;;;;41.78;23.83;100843.13;5024369;28;20420;-82
2022/07/28 10:49:08;;;;;;;;;;;;;;;41.39;24.28;100847.84;5029193;28;19964;-83
2022/07/28 10:51:34;;;;;;;;;;;;;;;40.43;25.86;100849.75;5021087;28;20396;-82
2022/07/28 10:53:59;;;;;;;;;;;;;;;39.78;26.52;100838.53;5027450;28;20269;-82
2022/07/28 10:56:35;;;;;;;;;;;;;;;38.93;27.84;100848.63;5027843;28;19961;-81
2022/07/28 10:59:13;;;;;;;;;;;;;;;38.73;27.80;100856.75;5027577;28;19914;-83
2022/07/28 11:01:39;;;;;;;;;;;;;;;38.36;28.58;100848.19;5026251;28;19914;-82
2022/07/28 11:04:07;;;;;;;;;;;;;;;37.14;29.88;100846.19;5028670;28;19935;-82
2022/07/28 11:06:38;;;;;;;;;;;;;;;36.77;31.03;100844.97;5025803;28;19917;-82
2022/07/28 11:09:15;;;;;;;;;;;;;;;36.36;32.35;100857.50;5028800;28;19952;-82
2022/07/28 11:11:50;;;;;;;;;;;;;;;36.55;31.96;100848.78;5031146;28;20008;-82
2022/07/28 11:14:22;;;;;;;;;;;;;;;35.65;32.65;100846.59;5031656;28;19918;-82
2022/07/28 11:16:47;;;;;;;;;;;;;;;35.42;31.91;100841.06;5029277;28;20370;-82
2022/07/28 11:19:15;;;;;;;;;;;;;;;34.52;32.78;100846.84;5030581;28;20008;-82
2022/07/28 11:22:00;;;;;;;;;;;;;;;34.89;32.11;100848.41;5024849;28;20293;-82
2022/07/28 11:24:25;;;;;;;;;;;;;;;34.05;33.01;100854.66;5030593;28;19992;-83
2022/07/28 11:26:53;;;;;;;;;;;;;;;33.68;33.81;100864.94;5026577;28;19967;-81
2022/07/28 11:29:18;;;;;;;;;;;;;;;33.88;33.75;100860.06;5030355;28;20296;-82
2022/07/28 11:31:46;;;;;;;;;;;;;;;34.19;32.75;100860.22;5032091;28;19924;-82
2022/07/28 11:34:12;;;;;;;;;;;;;;;33.91;33.85;100863.06;5019409;28;19933;-83
2022/07/28 11:36:56;;;;;;;;;;;;;;;33.52;34.63;100853.25;5029290;28;20047;-83
2022/07/28 11:39:22;;;;;;;;;;;;;;;34.07;33.83;100863.53;5018620;28;19919;-82
2022/07/28 11:41:47;;;;;;;;;;;;;;;34.15;34.69;100854.44;5024398;28;19917;-83
2022/07/28 11:44:28;;;;;;;;;;;;;;;34.22;34.67;100854.81;5029776;28;20350;-83
2022/07/28 11:47:14;;;;;;;;;;;;;;;34.49;32.58;100847.47;5034017;28;19983;-82
2022/07/28 11:49:40;;;;;;;;;;;;;;;34.79;33.24;100845.88;5031734;28;20035;-82
2022/07/28 11:52:09;;;;;;;;;;;;;;;34.66;32.66;100849.59;5024487;28;19921;-80
2022/07/28 11:54:35;;;;;;;;;;;;;;;34.02;34.10;100853.31;5029545;28;19974;-81
2022/07/28 11:57:01;;;;;;;;;;;;;;;33.85;34.16;100845.59;5033230;28;20015;-81
2022/07/28 11:59:26;;;;;;;;;;;;;;;34.23;32.54;100855.63;5030729;28;19950;-82
2022/07/28 12:01:52;;;;;;;;;;;;;;;34.22;32.89;100859.59;5034982;28;19921;-83
2022/07/28 12:04:24;;;;;;;;;;;;;;;34.15;35.92;100857.22;5026073;28;19917;-79
2022/07/28 12:06:50;;;;;;;;;;;;;;;33.60;33.66;100865.69;5032836;28;19936;-83
2022/07/28 12:09:16;;;;;;;;;;;;;;;33.51;34.96;100857.19;5013084;28;20385;-85
2022/07/28 12:11:42;;;;;;;;;;;;;;;33.26;36.82;100860.50;5027093;28;19929;-82
2022/07/28 12:14:14;;;;;;;;;;;;;;;33.24;37.30;100857.19;5040261;28;20124;-83
2022/07/28 12:16:41;;;;;;;;;;;;;;;33.19;35.70;100855.34;5037535;28;19960;-83
2022/07/28 12:19:06;;;;;;;;;;;;;;;33.19;35.95;100860.91;5041133;28;19940;-82
2022/07/28 12:21:35;;;;;;;;;;;;;;;32.08;37.89;100860.53;5030199;28;19921;-83
2022/07/28 12:24:01;;;;;;;;;;;;;;;32.24;39.05;100865.84;5030240;28;19963;-81
2022/07/28 12:26:31;;;;;;;;;;;;;;;32.27;39.10;100857.72;5030778;28;20015;-84
2022/07/28 12:28:57;;;;;;;;;;;;;;;31.69;40.17;100864.34;5026890;28;20063;-83
2022/07/28 12:31:26;;;;;;;;;;;;;;;30.78;42.02;100853.09;5022761;28;20016;-83
2022/07/28 12:33:54;;;;;;;;;;;;;;;30.50;40.50;100861.09;5028672;28;19934;-83